createdAt,value
2019-05-10T00:03:39.785Z,71.20
2019-05-10T00:08:47.256Z,71.30
2019-05-10T00:13:58.984Z,71.51
2019-05-10T00:19:04.320Z,71.12
2019-05-10T00:24:09.564Z,71.83
2019-05-10T00:29:14.853Z,71.90
2019-05-10T00:34:20.101Z,71.97
2019-05-10T00:39:25.435Z,72.16
2019-05-10T00:44:30.878Z,72.12
2019-05-10T00:49:36.154Z,72.26
2019-05-10T00:54:41.428Z,72.46
2019-05-10T00:59:46.887Z,72.16
2019-05-10T01:04:52.175Z,72.50
2019-05-10T01:09:57.729Z,72.71
2019-05-10T01:15:03.048Z,72.48
2019-05-10T01:20:08.594Z,72.70
2019-05-10T01:25:13.986Z,72.65
2019-05-10T01:30:19.805Z,72.76
2019-05-10T01:35:25.303Z,72.67
2019-05-10T01:40:30.582Z,72.95
2019-05-10T01:45:35.839Z,72.66
2019-05-10T01:50:41.473Z,73.08
2019-05-10T01:55:52.345Z,73.15
2019-05-10T02:00:53.700Z,72.84
2019-05-10T02:05:59.040Z,72.85
2019-05-10T02:11:04.324Z,72.68
2019-05-10T02:16:09.594Z,72.41
2019-05-10T02:21:14.842Z,72.15
2019-05-10T02:26:20.106Z,72.52
2019-05-10T02:31:25.663Z,72.50
2019-05-10T02:36:30.924Z,72.57
2019-05-10T02:41:36.724Z,72.04
2019-05-10T02:46:42.009Z,71.93
2019-05-10T02:51:47.249Z,71.82
2019-05-10T02:56:54.096Z,72.11
2019-05-10T03:02:00.769Z,72.29
2019-05-10T03:07:06.847Z,72.27
2019-05-10T03:12:24.059Z,72.06
2019-05-10T03:17:30.478Z,71.90
2019-05-10T03:22:42.088Z,71.92
2019-05-10T03:27:47.929Z,72.05
2019-05-10T03:32:53.446Z,72.24
2019-05-10T03:37:58.992Z,72.19
2019-05-10T03:43:05.153Z,72.25
2019-05-10T03:48:11.233Z,72.17
2019-05-10T03:53:16.831Z,72.05
2019-05-10T03:58:22.095Z,72.28
2019-05-10T04:03:27.636Z,71.71
2019-05-10T04:08:32.865Z,72.07
2019-05-10T04:13:38.101Z,71.49
2019-05-10T04:18:43.363Z,71.36
2019-05-10T04:23:48.637Z,71.34
2019-05-10T04:28:53.926Z,71.75
2019-05-10T04:33:59.190Z,71.46
2019-05-10T04:39:06.012Z,71.21
2019-05-10T04:44:11.279Z,70.55
2019-05-10T04:49:16.546Z,70.26
2019-05-10T04:54:21.914Z,70.20
2019-05-10T04:59:27.173Z,70.09
2019-05-10T05:04:32.370Z,70.05
2019-05-10T05:09:37.604Z,70.59
2019-05-10T05:14:42.865Z,69.78
2019-05-10T05:19:48.142Z,69.24
2019-05-10T05:24:55.060Z,69.19
2019-05-10T05:30:00.667Z,69.09
2019-05-10T05:35:06.549Z,69.08
2019-05-10T05:40:12.927Z,68.29
2019-05-10T05:45:18.179Z,68.11
2019-05-10T05:50:24.350Z,67.92
2019-05-10T05:55:32.017Z,67.91
2019-05-10T06:00:44.374Z,67.82
2019-05-10T06:05:43.852Z,67.96
2019-05-10T06:10:56.793Z,68.58
2019-05-10T06:15:59.873Z,68.93
2019-05-10T06:21:03.377Z,67.18
2019-05-10T06:26:21.405Z,66.83
2019-05-10T06:31:15.642Z,66.10
2019-05-10T06:36:21.759Z,64.04
2019-05-10T06:41:27.001Z,63.40
2019-05-10T06:46:32.594Z,62.15
2019-05-10T06:51:42.818Z,62.36
2019-05-10T06:56:45.771Z,59.97
2019-05-10T07:01:52.194Z,58.46
2019-05-10T07:06:57.560Z,57.89
2019-05-10T07:12:09.406Z,57.89
2019-05-10T07:17:11.914Z,54.33
2019-05-10T07:22:21.631Z,55.74
2019-05-10T07:27:25.295Z,54.42
2019-05-10T07:32:30.604Z,53.49
2019-05-10T07:37:35.908Z,53.94
2019-05-10T07:42:45.674Z,55.26
2019-05-10T07:47:48.562Z,53.71
2019-05-10T07:52:53.832Z,53.85
2019-05-10T07:58:04.984Z,53.79
2019-05-10T08:03:15.780Z,52.49
2019-05-10T08:08:13.418Z,51.36
2019-05-10T08:13:23.345Z,49.95
2019-05-10T08:18:25.639Z,45.80
2019-05-10T08:23:32.746Z,48.81
2019-05-10T08:28:42.247Z,44.71
2019-05-10T08:33:53.708Z,44.96
2019-05-10T08:39:04.997Z,46.30
2019-05-10T08:44:02.398Z,46.90
2019-05-10T08:49:07.255Z,48.14
2019-05-10T08:54:12.518Z,47.27
2019-05-10T08:59:23.583Z,45.02
2019-05-10T09:04:25.652Z,44.24
2019-05-10T09:09:33.711Z,43.79
2019-05-10T09:14:38.511Z,43.87
2019-05-10T09:19:44.332Z,44.77
2019-05-10T09:24:50.060Z,44.98
2019-05-10T09:29:55.819Z,45.46
2019-05-10T09:35:07.522Z,46.05
2019-05-10T09:40:09.956Z,46.18
2019-05-10T09:45:15.455Z,44.25
2019-05-10T09:50:22.975Z,45.83
2019-05-10T09:55:28.130Z,43.94
2019-05-10T10:00:38.012Z,44.85
2019-05-10T10:05:42.006Z,44.89
2019-05-10T10:10:47.667Z,46.15
2019-05-10T10:15:53.109Z,45.12
2019-05-10T10:20:58.348Z,45.81
2019-05-10T10:26:03.741Z,44.70
2019-05-10T10:31:09.045Z,46.20
2019-05-10T10:36:14.393Z,45.48
2019-05-10T10:41:26.019Z,48.52
2019-05-10T10:46:28.454Z,49.09
2019-05-10T10:51:34.589Z,51.56
2019-05-10T10:56:40.024Z,53.11
2019-05-10T11:01:50.403Z,52.12
2019-05-10T11:07:08.800Z,48.70
2019-05-10T11:12:00.938Z,49.20
2019-05-10T11:17:06.644Z,48.13
2019-05-10T11:22:12.238Z,48.15
2019-05-10T11:27:17.528Z,47.46
2019-05-10T11:32:22.807Z,47.44
2019-05-10T11:37:32.854Z,45.99
2019-05-10T11:42:37.757Z,47.28
2019-05-10T11:47:41.991Z,48.06
2019-05-10T11:52:51.042Z,48.11
2019-05-10T11:58:03.304Z,49.53
2019-05-10T12:08:12.968Z,49.73
2019-05-10T12:13:20.873Z,49.82
2019-05-10T12:18:26.801Z,49.02
2019-05-10T12:23:31.868Z,47.99
2019-05-10T12:26:04.972Z,49.00
2019-05-10T12:28:37.647Z,48.77
2019-05-10T12:33:45.424Z,47.65
2019-05-10T12:38:50.186Z,47.00
2019-05-10T12:44:02.974Z,47.79
2019-05-10T12:49:04.893Z,47.43
2019-05-10T12:54:11.362Z,48.09
2019-05-10T12:59:17.033Z,47.66
2019-05-10T13:04:27.548Z,47.33
2019-05-10T13:09:39.394Z,48.26
2019-05-10T13:14:40.096Z,47.26
2019-05-10T13:19:43.516Z,46.61
2019-05-10T13:24:48.780Z,47.08
2019-05-10T13:29:54.075Z,48.39
2019-05-10T13:34:59.703Z,49.41
2019-05-10T13:40:08.041Z,49.12
2019-05-10T13:45:13.192Z,48.17
2019-05-10T13:50:18.568Z,47.99
2019-05-10T13:55:23.823Z,48.73
2019-05-10T14:00:34.015Z,48.38
2019-05-10T14:05:39.756Z,47.58
2019-05-10T14:10:43.391Z,43.75
2019-05-10T14:15:49.726Z,45.32
2019-05-10T14:20:54.991Z,45.44
2019-05-10T14:26:00.307Z,46.31
2019-05-10T14:31:06.290Z,46.58
2019-05-10T14:36:11.834Z,46.51
2019-05-10T14:41:17.092Z,45.31
2019-05-10T14:46:22.702Z,43.87
2019-05-10T14:51:44.038Z,46.30
2019-05-10T14:56:35.040Z,45.74
2019-05-10T15:01:42.939Z,46.42
2019-05-10T15:06:47.275Z,46.39
2019-05-10T15:11:52.858Z,47.11
2019-05-10T15:16:58.604Z,47.26
2019-05-10T15:22:04.359Z,46.55
2019-05-10T15:27:09.991Z,46.09
2019-05-10T15:32:15.301Z,46.88
2019-05-10T15:37:21.555Z,47.61
2019-05-10T15:42:30.591Z,47.92
2019-05-10T15:47:48.927Z,47.66
2019-05-10T15:52:46.654Z,47.58
2019-05-10T15:57:51.859Z,48.01
2019-05-10T16:02:57.307Z,48.10
2019-05-10T16:08:03.403Z,47.73
2019-05-10T16:13:08.923Z,45.65
2019-05-10T16:18:14.254Z,43.39
2019-05-10T16:23:20.123Z,44.10
2019-05-10T16:28:25.405Z,45.34
2019-05-10T16:33:31.047Z,45.63
2019-05-10T16:38:36.314Z,46.35
2019-05-10T16:43:41.946Z,47.16
2019-05-10T16:48:47.582Z,46.36
2019-05-10T16:53:52.834Z,46.50
2019-05-10T16:58:59.532Z,43.24
2019-05-10T17:04:05.229Z,44.27
2019-05-10T17:09:18.300Z,40.46
2019-05-10T17:14:18.295Z,40.45
2019-05-10T17:19:27.951Z,41.52
2019-05-10T17:24:32.824Z,43.57
2019-05-10T17:29:38.128Z,46.88
2019-05-10T17:34:43.408Z,47.57
2019-05-10T17:39:48.694Z,47.35
2019-05-10T17:44:55.154Z,47.01
2019-05-10T17:50:01.380Z,46.70
2019-05-10T17:55:10.941Z,47.47
2019-05-10T18:00:14.862Z,48.49
2019-05-10T18:05:20.120Z,49.06
2019-05-10T18:10:26.475Z,49.82
2019-05-10T18:15:33.012Z,50.18
2019-05-10T18:20:42.099Z,50.61
2019-05-10T18:25:45.662Z,50.80
2019-05-10T18:30:50.958Z,51.61
2019-05-10T18:35:56.205Z,52.22
2019-05-10T18:41:05.354Z,58.10
2019-05-10T18:46:08.888Z,58.95
2019-05-10T18:51:18.075Z,59.60
2019-05-10T18:56:25.374Z,59.29
2019-05-10T19:01:32.859Z,58.55
2019-05-10T19:06:36.015Z,63.68
2019-05-10T19:11:41.499Z,63.33
2019-05-10T19:16:48.174Z,63.96
2019-05-10T19:21:53.490Z,64.79
2019-05-10T19:27:01.556Z,64.47
2019-05-10T19:32:11.383Z,63.47
2019-05-10T19:37:28.261Z,62.33
2019-05-10T19:42:22.087Z,62.19
2019-05-10T19:47:27.507Z,62.01
2019-05-10T19:52:33.452Z,61.65
2019-05-10T19:57:38.695Z,61.57
2019-05-10T20:02:44.076Z,63.53
2019-05-10T20:07:49.394Z,64.55
2019-05-10T20:12:54.693Z,65.21
2019-05-10T20:18:00.409Z,66.38
2019-05-10T20:23:05.710Z,66.67
2019-05-10T20:28:11.316Z,66.42
2019-05-10T20:33:16.581Z,65.82
2019-05-10T20:38:21.849Z,64.41
2019-05-10T20:43:27.424Z,64.29
2019-05-10T20:48:33.023Z,66.33
2019-05-10T20:53:38.283Z,67.53
2019-05-10T20:58:43.535Z,67.99
2019-05-10T21:03:48.858Z,66.50
2019-05-10T21:08:54.433Z,66.54
2019-05-10T21:14:00.792Z,65.78
2019-05-10T21:19:06.432Z,66.30
2019-05-10T21:24:11.726Z,66.12
2019-05-10T21:29:17.010Z,65.78
2019-05-10T21:34:22.539Z,67.23
2019-05-10T21:39:27.794Z,66.86
2019-05-10T21:44:33.063Z,66.69
2019-05-10T21:49:38.665Z,66.22
2019-05-10T21:54:43.926Z,66.22
2019-05-10T21:59:50.246Z,65.92
2019-05-10T22:04:55.500Z,66.45
2019-05-10T22:10:00.769Z,67.39
2019-05-10T22:15:06.352Z,67.13
2019-05-10T22:20:11.677Z,67.62
2019-05-10T22:25:17.039Z,67.88
2019-05-10T22:30:22.792Z,67.42
2019-05-10T22:35:28.369Z,67.65
2019-05-10T22:40:33.532Z,67.46
2019-05-10T22:45:39.125Z,67.16
2019-05-10T22:50:44.676Z,67.75
2019-05-10T22:55:49.934Z,66.67
2019-05-10T23:00:55.196Z,66.77
2019-05-10T23:06:00.955Z,66.79
2019-05-10T23:11:06.477Z,66.89
2019-05-10T23:16:11.771Z,66.48
2019-05-10T23:21:17.045Z,68.08
2019-05-10T23:26:22.582Z,69.13
2019-05-10T23:31:27.884Z,68.39
2019-05-10T23:36:33.404Z,67.83
2019-05-10T23:41:38.661Z,69.12
2019-05-10T23:46:43.938Z,69.99
2019-05-10T23:51:49.188Z,69.73
2019-05-10T23:56:54.448Z,69.38
